createdAt,value
2022-11-01T00:05:02.002Z,93852.99
2022-11-01T00:10:11.078Z,93845.56
2022-11-01T00:15:17.838Z,93837.72
2022-11-01T00:20:24.902Z,93835.52
2022-11-01T00:25:31.829Z,93837.97
2022-11-01T00:30:42.332Z,93838.13
2022-11-01T00:35:49.248Z,93830.97
2022-11-01T00:40:56.433Z,93830.88
2022-11-01T00:46:03.706Z,93822.74
2022-11-01T00:51:10.671Z,93806.14
2022-11-01T00:56:17.678Z,93816.60
2022-11-01T01:01:25.003Z,93823.58
2022-11-01T01:06:32.494Z,93812.02
2022-11-01T01:11:39.992Z,93813.05
2022-11-01T01:16:46.780Z,93815.75
2022-11-01T01:21:53.988Z,93808.73
2022-11-01T01:27:01.243Z,93812.91
2022-11-01T01:32:08.471Z,93800.07
2022-11-01T01:37:16.743Z,93801.20
2022-11-01T01:42:33.353Z,93798.88
2022-11-01T01:47:42.893Z,93799.09
2022-11-01T01:53:00.740Z,93788.89
2022-11-01T01:58:11.449Z,93792.52
2022-11-01T02:03:18.704Z,93795.89
2022-11-01T02:08:30.454Z,93790.80
2022-11-01T02:13:39.590Z,93794.16
2022-11-01T02:19:17.623Z,93798.30
2022-11-01T02:24:49.641Z,93789.33
2022-11-01T02:30:03.761Z,93777.59
2022-11-01T02:35:34.268Z,93771.33
2022-11-01T02:40:54.270Z,93773.86
2022-11-01T02:46:05.659Z,93780.00
2022-11-01T02:51:12.974Z,93769.63
2022-11-01T02:56:22.565Z,93776.35
2022-11-01T03:01:33.327Z,93780.93
2022-11-01T03:06:47.252Z,93770.08
2022-11-01T03:11:56.119Z,93765.87
2022-11-01T03:17:32.994Z,93767.84
2022-11-01T03:23:01.855Z,93772.44
2022-11-01T03:28:16.080Z,93763.91
2022-11-01T03:33:25.643Z,93771.83
2022-11-01T03:38:36.422Z,93765.19
2022-11-01T03:43:43.854Z,93763.47
2022-11-01T03:48:50.763Z,93766.86
2022-11-01T03:53:57.444Z,93768.93
2022-11-01T03:59:04.396Z,93765.66
2022-11-01T04:04:13.788Z,93765.31
2022-11-01T04:09:21.749Z,93767.55
2022-11-01T04:14:47.053Z,93763.22
2022-11-01T04:20:12.669Z,93765.42
2022-11-01T04:25:26.527Z,93759.80
2022-11-01T04:30:38.661Z,93755.33
2022-11-01T04:35:51.993Z,93765.45
2022-11-01T04:41:02.059Z,93758.58
2022-11-01T04:46:08.893Z,93755.41
2022-11-01T04:51:16.507Z,93747.58
2022-11-01T04:56:25.618Z,93749.23
2022-11-01T05:01:34.306Z,93758.69
2022-11-01T05:06:43.409Z,93747.45
2022-11-01T05:11:51.146Z,93731.87
2022-11-01T05:17:03.673Z,93747.71
2022-11-01T05:22:10.425Z,93734.46
2022-11-01T05:27:19.085Z,93735.66
2022-11-01T05:32:25.742Z,93745.61
2022-11-01T05:37:33.578Z,93742.44
2022-11-01T05:42:41.926Z,93736.09
2022-11-01T05:47:49.113Z,93734.23
2022-11-01T05:52:56.377Z,93735.41
2022-11-01T05:58:03.211Z,93739.91
2022-11-01T06:03:10.829Z,93745.17
2022-11-01T06:08:18.299Z,93740.25
2022-11-01T06:13:26.336Z,93750.79
2022-11-01T06:18:34.799Z,93751.17
2022-11-01T06:23:41.694Z,93751.91
2022-11-01T06:28:50.209Z,93756.44
2022-11-01T06:33:56.991Z,93756.70
2022-11-01T06:39:03.699Z,93764.48
2022-11-01T06:44:12.214Z,93761.60
2022-11-01T06:49:20.198Z,93756.06
2022-11-01T06:54:46.638Z,93762.76
2022-11-01T06:59:54.596Z,93767.48
2022-11-01T07:05:01.504Z,93772.56
2022-11-01T07:10:11.847Z,93783.80
2022-11-01T07:15:19.989Z,93774.40
2022-11-01T07:20:30.254Z,93778.21
2022-11-01T07:25:37.851Z,93780.66
2022-11-01T07:30:47.690Z,93777.81
2022-11-01T07:35:56.494Z,93781.41
2022-11-01T07:41:05.589Z,93780.73
2022-11-01T07:46:14.392Z,93782.56
2022-11-01T07:51:22.583Z,93787.09
2022-11-01T07:56:31.639Z,93787.17
2022-11-01T08:01:40.995Z,93784.09
2022-11-01T08:06:52.058Z,93774.88
2022-11-01T08:12:10.476Z,93780.92
2022-11-01T08:17:20.914Z,93777.40
2022-11-01T08:22:38.962Z,93779.22
2022-11-01T08:27:56.114Z,93781.72
2022-11-01T08:33:11.582Z,93776.83
2022-11-01T08:38:21.967Z,93775.14
2022-11-01T08:43:30.806Z,93770.89
2022-11-01T08:48:40.015Z,93765.84
2022-11-01T08:53:48.608Z,93766.98
2022-11-01T08:58:59.032Z,93762.06
2022-11-01T09:04:07.757Z,93759.47
2022-11-01T09:09:15.749Z,93751.75
2022-11-01T09:14:26.299Z,93754.75
2022-11-01T09:19:33.606Z,93742.95
2022-11-01T09:24:41.471Z,93748.04
2022-11-01T09:29:51.069Z,93745.59
2022-11-01T09:34:56.819Z,93747.24
2022-11-01T09:40:03.967Z,93744.33
2022-11-01T09:45:20.997Z,93758.86
2022-11-01T09:50:37.045Z,93752.28
2022-11-01T09:55:55.584Z,93757.08
2022-11-01T10:01:33.986Z,93761.11
2022-11-01T10:06:48.624Z,93755.41
2022-11-01T10:12:19.609Z,93759.52
2022-11-01T10:17:34.236Z,93753.23
2022-11-01T10:22:52.279Z,93754.73
2022-11-01T10:28:06.622Z,93751.02
2022-11-01T10:33:30.954Z,93751.94
2022-11-01T10:39:29.907Z,93752.39
2022-11-01T10:43:55.624Z,93753.73
2022-11-01T10:49:14.568Z,93746.08
2022-11-01T10:54:26.100Z,93747.31
2022-11-01T10:59:47.549Z,93750.30
2022-11-01T11:04:54.805Z,93747.14
2022-11-01T11:10:05.967Z,93748.64
2022-11-01T11:15:48.709Z,93741.47
2022-11-01T11:21:03.062Z,93741.30
2022-11-01T11:26:15.961Z,93744.00
2022-11-01T11:31:34.943Z,93742.80
2022-11-01T11:36:47.081Z,93740.66
2022-11-01T11:41:53.980Z,93727.63
2022-11-01T11:47:03.560Z,93731.48
2022-11-01T11:52:16.657Z,93730.45
2022-11-01T11:57:31.145Z,93727.63
2022-11-01T12:02:44.912Z,93727.27
2022-11-01T12:07:58.480Z,93734.02
2022-11-01T12:13:21.564Z,93735.36
2022-11-01T12:18:28.152Z,93731.05
2022-11-01T12:23:40.957Z,93725.94
2022-11-01T12:29:06.535Z,93729.27
2022-11-01T12:34:31.207Z,93724.00
2022-11-01T12:40:02.150Z,93727.92
2022-11-01T12:45:19.771Z,93730.20
2022-11-01T12:50:43.256Z,93731.33
2022-11-01T12:55:51.400Z,93730.95
2022-11-01T13:01:28.053Z,93731.33
2022-11-01T13:06:49.837Z,93735.27
2022-11-01T13:12:10.551Z,93729.84
2022-11-01T13:17:28.482Z,93735.28
2022-11-01T13:22:39.601Z,93738.98
2022-11-01T13:28:13.826Z,93738.20
2022-11-01T13:33:24.995Z,93745.94
2022-11-01T13:39:14.142Z,93746.58
2022-11-01T13:44:27.722Z,93746.03
2022-11-01T13:49:59.429Z,93752.30
2022-11-01T13:55:35.055Z,93757.41
2022-11-01T14:00:46.424Z,93758.59
2022-11-01T14:06:31.995Z,93765.16
2022-11-01T14:11:50.112Z,93764.68
2022-11-01T14:17:24.212Z,93765.73
2022-11-01T14:22:34.569Z,93773.52
2022-11-01T14:27:50.673Z,93782.51
2022-11-01T14:33:03.305Z,93784.89
2022-11-01T14:38:23.436Z,93793.12
2022-11-01T14:43:53.419Z,93795.28
2022-11-01T14:49:15.209Z,93791.81
2022-11-01T14:54:40.325Z,93795.31
2022-11-01T14:59:47.719Z,93799.92
2022-11-01T15:05:02.933Z,93800.17
2022-11-01T15:10:17.277Z,93807.72
2022-11-01T15:15:28.814Z,93813.80
2022-11-01T15:20:42.819Z,93822.08
2022-11-01T15:26:02.048Z,93821.72
2022-11-01T15:31:10.380Z,93832.09
2022-11-01T15:36:31.994Z,93838.41
2022-11-01T15:41:39.530Z,93827.84
2022-11-01T15:46:47.609Z,93842.94
2022-11-01T15:52:04.840Z,93852.72
2022-11-01T15:57:24.758Z,93853.53
2022-11-01T16:02:42.224Z,93862.17
2022-11-01T16:07:50.678Z,93867.58
2022-11-01T16:13:00.230Z,93867.53
2022-11-01T16:18:20.608Z,93875.30
2022-11-01T16:23:31.173Z,93891.35
2022-11-01T16:28:51.206Z,93892.97
2022-11-01T16:33:59.724Z,93899.84
2022-11-01T16:39:30.198Z,93907.72
2022-11-01T16:44:36.894Z,93911.87
2022-11-01T16:49:56.625Z,93918.28
2022-11-01T16:55:03.612Z,93922.89
2022-11-01T17:00:15.052Z,93930.75
2022-11-01T17:05:25.665Z,93945.31
2022-11-01T17:10:33.566Z,93960.93
2022-11-01T17:15:52.060Z,93960.00
2022-11-01T17:21:02.413Z,93963.02
2022-11-01T17:26:14.665Z,93972.33
2022-11-01T17:31:21.875Z,93981.28
2022-11-01T17:36:29.153Z,93978.00
2022-11-01T17:41:35.939Z,93985.03
2022-11-01T17:46:43.265Z,93984.73
2022-11-01T17:51:54.467Z,93994.02
2022-11-01T17:56:59.493Z,93986.15
2022-11-01T18:02:06.298Z,93995.02
2022-11-01T18:07:15.197Z,93994.00
2022-11-01T18:12:41.346Z,94000.39
2022-11-01T18:18:13.851Z,94006.62
2022-11-01T18:23:21.711Z,94003.56
2022-11-01T18:28:30.505Z,94000.89
2022-11-01T18:33:56.303Z,94023.24
2022-11-01T18:39:13.412Z,94023.24
2022-11-01T18:44:20.070Z,94000.63
2022-11-01T18:49:29.550Z,94007.19
2022-11-01T18:54:38.469Z,94010.16
2022-11-01T18:59:49.061Z,93997.41
2022-11-01T19:05:07.886Z,94009.22
2022-11-01T19:10:23.594Z,94028.48
2022-11-01T19:15:32.476Z,94048.23
2022-11-01T19:20:43.669Z,94066.52
2022-11-01T19:25:51.953Z,94061.63
2022-11-01T19:31:03.525Z,94046.12
2022-11-01T19:36:22.143Z,94047.60
2022-11-01T19:41:36.063Z,94050.28
2022-11-01T19:46:42.143Z,94048.45
2022-11-01T19:52:11.181Z,94063.01
2022-11-01T19:57:40.952Z,94067.08
2022-11-01T20:02:48.200Z,94069.08
2022-11-01T20:08:05.551Z,94072.17
2022-11-01T20:13:12.610Z,94067.03
2022-11-01T20:18:19.786Z,94075.42
2022-11-01T20:23:27.470Z,94092.85
2022-11-01T20:28:36.179Z,94092.41
2022-11-01T20:33:43.262Z,94099.34
2022-11-01T20:38:50.579Z,94094.08
2022-11-01T20:43:57.854Z,94099.96
2022-11-01T20:49:04.875Z,94111.69
2022-11-01T20:54:17.629Z,94103.88
2022-11-01T20:59:21.670Z,94091.34
2022-11-01T21:04:32.770Z,94100.94
2022-11-01T21:09:45.350Z,94101.78
2022-11-01T21:14:52.433Z,94096.45
2022-11-01T21:20:00.059Z,94091.84
2022-11-01T21:25:09.515Z,94091.85
2022-11-01T21:30:22.333Z,94085.45
2022-11-01T21:35:38.711Z,94084.42
2022-11-01T21:40:46.629Z,94081.16
2022-11-01T21:45:53.968Z,94079.66
2022-11-01T21:51:00.972Z,94082.41
2022-11-01T21:56:08.592Z,94076.81
2022-11-01T22:01:16.015Z,94071.45
2022-11-01T22:06:23.613Z,94059.43
2022-11-01T22:11:32.739Z,94063.31
2022-11-01T22:16:40.286Z,94067.50
2022-11-01T22:21:47.297Z,94057.76
2022-11-01T22:26:54.157Z,94065.86
2022-11-01T22:32:01.302Z,94059.34
2022-11-01T22:37:15.228Z,94054.89
2022-11-01T22:42:20.925Z,94057.86
2022-11-01T22:47:31.595Z,94053.19
2022-11-01T22:52:43.787Z,94053.75
2022-11-01T22:57:58.126Z,94044.91
2022-11-01T23:03:38.431Z,94048.80
2022-11-01T23:08:45.626Z,94048.50
2022-11-01T23:14:10.621Z,94059.61
2022-11-01T23:19:17.630Z,94067.83
2022-11-01T23:24:26.048Z,94066.96
2022-11-01T23:29:32.904Z,94060.88
2022-11-01T23:34:40.786Z,94066.09
2022-11-01T23:39:48.255Z,94069.47
2022-11-01T23:44:57.750Z,94070.75
2022-11-01T23:50:18.353Z,94075.73
2022-11-01T23:55:38.345Z,94077.45
